createdAt,value
2023-01-04T00:00:50.962Z,2.90
2023-01-04T00:04:55.246Z,3.50
2023-01-04T00:08:58.162Z,3.40
2023-01-04T00:13:01.134Z,3.60
2023-01-04T00:17:04.110Z,2.93
2023-01-04T00:21:13.981Z,3.43
2023-01-04T00:25:17.659Z,3.60
2023-01-04T00:29:20.434Z,3.00
2023-01-04T00:33:23.425Z,3.17
2023-01-04T00:37:27.858Z,2.90
2023-01-04T00:41:57.389Z,2.97
2023-01-04T00:45:53.741Z,3.20
2023-01-04T00:49:57.250Z,3.10
2023-01-04T00:54:03.597Z,2.93
2023-01-04T00:58:06.670Z,3.80
2023-01-04T01:02:10.007Z,2.87
2023-01-04T01:06:13.677Z,2.90
2023-01-04T01:10:18.909Z,3.43
2023-01-04T01:14:25.157Z,3.80
2023-01-04T01:18:29.622Z,3.10
2023-01-04T01:22:33.648Z,3.43
2023-01-04T01:26:38.218Z,2.90
2023-01-04T01:30:42.552Z,3.17
2023-01-04T01:34:45.567Z,3.50
2023-01-04T01:38:49.037Z,3.70
2023-01-04T01:42:53.369Z,3.43
2023-01-04T01:46:56.839Z,2.87
2023-01-04T01:51:03.634Z,3.03
2023-01-04T01:55:12.075Z,3.20
2023-01-04T01:59:17.885Z,3.50
2023-01-04T02:03:25.145Z,3.93
2023-01-04T02:07:29.871Z,3.67
2023-01-04T02:11:33.448Z,4.37
2023-01-04T02:15:49.247Z,3.67
2023-01-04T02:20:11.728Z,4.17
2023-01-04T02:24:44.718Z,4.33
2023-01-04T02:29:23.348Z,4.17
2023-01-04T02:33:40.043Z,4.37
2023-01-04T02:37:50.382Z,4.60
2023-01-04T02:41:58.533Z,4.20
2023-01-04T02:46:05.562Z,4.10
2023-01-04T02:50:32.538Z,4.33
2023-01-04T02:54:35.880Z,4.53
2023-01-04T02:58:54.506Z,3.57
2023-01-04T03:03:36.491Z,4.10
2023-01-04T03:07:51.328Z,3.93
2023-01-04T03:12:16.937Z,4.40
2023-01-04T03:16:24.772Z,4.27
2023-01-04T03:20:31.227Z,4.40
2023-01-04T03:24:52.985Z,4.57
2023-01-04T03:29:18.001Z,4.20
2023-01-04T03:33:39.182Z,3.73
2023-01-04T03:37:48.743Z,4.20
2023-01-04T03:42:18.208Z,3.80
2023-01-04T03:46:46.105Z,3.80
2023-01-04T03:50:54.138Z,4.10
2023-01-04T03:54:58.644Z,3.57
2023-01-04T03:59:03.190Z,3.17
2023-01-04T04:03:10.617Z,2.90
2023-01-04T04:07:31.221Z,2.93
2023-01-04T04:11:34.227Z,2.57
2023-01-04T04:15:39.850Z,2.73
2023-01-04T04:19:42.632Z,2.60
2023-01-04T04:23:46.100Z,3.17
2023-01-04T04:27:49.674Z,3.10
2023-01-04T04:31:54.052Z,2.97
2023-01-04T04:35:57.147Z,2.97
2023-01-04T04:40:00.212Z,2.50
2023-01-04T04:44:02.131Z,2.80
2023-01-04T04:48:06.905Z,2.90
2023-01-04T04:52:10.414Z,3.10
2023-01-04T04:56:13.646Z,2.93
2023-01-04T05:00:17.218Z,3.13
2023-01-04T05:04:21.758Z,3.13
2023-01-04T05:08:24.787Z,2.60
2023-01-04T05:12:45.161Z,2.33
2023-01-04T05:16:48.345Z,2.93
2023-01-04T05:20:53.277Z,2.43
2023-01-04T05:24:56.092Z,3.13
2023-01-04T05:28:58.825Z,2.80
2023-01-04T05:33:02.372Z,3.30
2023-01-04T05:37:07.100Z,3.30
2023-01-04T05:41:30.228Z,3.20
2023-01-04T05:45:33.256Z,2.57
2023-01-04T05:49:36.254Z,2.80
2023-01-04T05:53:40.592Z,3.03
2023-01-04T05:57:43.536Z,2.80
2023-01-04T06:01:46.542Z,3.00
2023-01-04T06:05:50.687Z,2.97
2023-01-04T06:09:55.188Z,2.77
2023-01-04T06:13:59.310Z,2.47
2023-01-04T06:18:02.111Z,2.50
2023-01-04T06:22:05.159Z,2.73
2023-01-04T06:26:09.463Z,2.87
2023-01-04T06:30:12.645Z,2.20
2023-01-04T06:34:16.337Z,2.97
2023-01-04T06:38:19.200Z,2.37
2023-01-04T06:42:41.900Z,2.60
2023-01-04T06:46:45.091Z,2.67
2023-01-04T06:50:48.017Z,3.03
2023-01-04T06:54:50.851Z,2.93
2023-01-04T06:58:55.299Z,3.23
2023-01-04T07:03:13.631Z,2.87
2023-01-04T07:07:18.030Z,2.77
2023-01-04T07:11:20.982Z,3.00
2023-01-04T07:15:38.702Z,3.00
2023-01-04T07:19:43.134Z,2.67
2023-01-04T07:23:45.946Z,3.17
2023-01-04T07:27:52.803Z,2.80
2023-01-04T07:31:58.288Z,3.43
2023-01-04T07:36:06.261Z,2.97
2023-01-04T07:40:10.376Z,3.60
2023-01-04T07:44:14.382Z,4.20
2023-01-04T07:48:18.857Z,3.57
2023-01-04T07:52:22.463Z,4.67
2023-01-04T07:56:25.636Z,3.97
2023-01-04T08:00:28.662Z,3.80
2023-01-04T08:04:35.245Z,4.00
2023-01-04T08:08:38.764Z,4.40
2023-01-04T08:12:41.896Z,3.97
2023-01-04T08:16:44.910Z,4.23
2023-01-04T08:20:54.817Z,3.73
2023-01-04T08:25:02.286Z,3.63
2023-01-04T08:29:05.238Z,4.10
2023-01-04T08:33:14.513Z,3.73
2023-01-04T08:37:18.737Z,4.27
2023-01-04T08:41:55.997Z,3.80
2023-01-04T08:45:44.937Z,3.70
2023-01-04T08:49:48.240Z,4.10
2023-01-04T08:53:53.024Z,4.50
2023-01-04T08:57:56.682Z,4.10
2023-01-04T09:02:05.287Z,4.30
2023-01-04T09:06:11.056Z,4.37
2023-01-04T09:10:15.448Z,4.10
2023-01-04T09:14:18.413Z,3.93
2023-01-04T09:18:31.927Z,4.23
2023-01-04T09:22:35.462Z,4.17
2023-01-04T09:26:39.954Z,3.77
2023-01-04T09:30:42.758Z,4.03
2023-01-04T09:34:46.170Z,4.00
2023-01-04T09:38:49.435Z,4.20
2023-01-04T09:43:20.300Z,4.50
2023-01-04T09:47:23.937Z,3.63
2023-01-04T09:51:35.408Z,3.70
2023-01-04T09:55:41.833Z,3.63
2023-01-04T09:59:47.645Z,3.83
2023-01-04T10:03:59.165Z,4.00
2023-01-04T10:08:03.305Z,4.00
2023-01-04T10:12:17.015Z,3.70
2023-01-04T10:17:11.199Z,3.80
2023-01-04T10:21:32.873Z,4.90
2023-01-04T10:25:45.526Z,4.73
2023-01-04T10:30:09.410Z,4.90
2023-01-04T10:34:27.101Z,4.00
2023-01-04T10:38:36.397Z,4.20
2023-01-04T10:42:46.916Z,5.40
2023-01-04T10:46:57.630Z,4.00
2023-01-04T10:51:10.242Z,3.20
2023-01-04T10:55:17.900Z,3.60
2023-01-04T10:59:29.201Z,2.87
2023-01-04T11:03:39.005Z,3.13
2023-01-04T11:07:50.049Z,3.43
2023-01-04T11:11:57.628Z,3.00
2023-01-04T11:16:05.188Z,2.80
2023-01-04T11:20:08.921Z,3.10
2023-01-04T11:24:31.628Z,3.03
2023-01-04T11:28:41.861Z,3.50
2023-01-04T11:32:50.648Z,2.40
2023-01-04T11:36:54.261Z,2.40
2023-01-04T11:41:05.416Z,2.70
2023-01-04T11:45:18.700Z,2.50
2023-01-04T11:49:21.745Z,2.50
2023-01-04T11:53:27.873Z,2.40
2023-01-04T11:57:32.831Z,2.20
2023-01-04T12:01:38.151Z,2.30
2023-01-04T12:05:41.096Z,2.23
2023-01-04T12:09:44.096Z,2.30
2023-01-04T12:13:48.733Z,2.03
2023-01-04T12:17:56.276Z,2.00
2023-01-04T12:22:01.593Z,2.50
2023-01-04T12:26:04.861Z,2.10
2023-01-04T12:30:41.768Z,2.17
2023-01-04T12:34:46.566Z,2.17
2023-01-04T12:39:29.173Z,2.40
2023-01-04T12:43:44.692Z,2.40
2023-01-04T12:48:13.056Z,2.10
2023-01-04T12:53:02.346Z,2.20
2023-01-04T12:57:24.970Z,2.33
2023-01-04T13:01:29.380Z,1.40
2023-01-04T13:10:02.005Z,1.90
2023-01-04T13:14:11.060Z,2.13
2023-01-04T13:18:34.064Z,2.60
2023-01-04T13:22:50.986Z,3.63
2023-01-04T13:26:56.293Z,2.70
2023-01-04T13:31:01.623Z,2.40
2023-01-04T13:35:14.337Z,2.83
2023-01-04T13:39:20.165Z,3.00
2023-01-04T13:43:46.212Z,2.97
2023-01-04T13:47:52.700Z,4.57
2023-01-04T13:52:11.377Z,3.20
2023-01-04T13:56:23.283Z,2.90
2023-01-04T14:00:31.164Z,3.40
2023-01-04T14:04:34.203Z,3.10
2023-01-04T14:08:40.111Z,3.60
2023-01-04T14:12:47.584Z,3.80
2023-01-04T14:16:52.071Z,5.17
2023-01-04T14:20:55.333Z,3.23
2023-01-04T14:25:15.308Z,3.87
2023-01-04T14:29:32.360Z,3.17
2023-01-04T14:33:42.432Z,3.87
2023-01-04T14:37:45.981Z,3.23
2023-01-04T14:41:57.531Z,3.77
2023-01-04T14:46:02.235Z,3.80
2023-01-04T14:50:05.935Z,3.07
2023-01-04T14:54:12.012Z,3.80
2023-01-04T14:58:15.047Z,3.73
2023-01-04T15:02:20.373Z,3.87
2023-01-04T15:06:23.671Z,3.70
2023-01-04T15:10:29.136Z,4.60
2023-01-04T15:14:32.176Z,4.33
2023-01-04T15:18:36.636Z,3.93
2023-01-04T15:22:40.071Z,4.50
2023-01-04T15:26:43.444Z,5.10
2023-01-04T15:30:59.046Z,3.83
2023-01-04T15:35:16.009Z,4.53
2023-01-04T15:39:20.045Z,5.30
2023-01-04T15:43:22.975Z,6.77
2023-01-04T15:47:25.977Z,7.40
2023-01-04T15:51:31.306Z,9.97
2023-01-04T15:55:36.777Z,8.43
2023-01-04T15:59:40.041Z,11.70
2023-01-04T16:03:45.325Z,7.83
2023-01-04T16:07:52.733Z,15.67
2023-01-04T16:12:13.446Z,4.73
2023-01-04T16:16:17.298Z,5.77
2023-01-04T16:20:21.628Z,4.93
2023-01-04T16:28:52.169Z,5.93
2023-01-04T16:32:55.093Z,5.53
2023-01-04T16:36:58.165Z,5.37
2023-01-04T16:41:03.997Z,6.10
2023-01-04T16:45:08.567Z,5.70
2023-01-04T16:49:13.261Z,5.53
2023-01-04T16:53:16.252Z,6.27
2023-01-04T16:57:21.534Z,5.77
2023-01-04T17:01:26.168Z,5.33
2023-01-04T17:05:29.255Z,5.30
2023-01-04T17:09:32.288Z,6.30
2023-01-04T17:13:36.614Z,5.13
2023-01-04T17:17:40.432Z,5.93
2023-01-04T17:21:43.388Z,5.70
2023-01-04T17:25:46.541Z,5.60
2023-01-04T17:29:50.746Z,7.20
2023-01-04T17:33:53.704Z,7.77
2023-01-04T17:37:56.685Z,6.13
2023-01-04T17:42:00.238Z,5.40
2023-01-04T17:46:05.858Z,7.77
2023-01-04T17:50:09.665Z,7.40
2023-01-04T17:54:23.891Z,8.97
2023-01-04T17:58:28.762Z,6.97
2023-01-04T18:02:33.427Z,6.63
2023-01-04T18:06:37.983Z,6.10
2023-01-04T18:11:06.222Z,7.07
2023-01-04T18:15:06.404Z,7.17
2023-01-04T18:19:10.863Z,5.60
2023-01-04T18:23:24.241Z,6.10
2023-01-04T18:27:28.781Z,7.13
2023-01-04T18:31:32.046Z,7.60
2023-01-04T18:35:37.715Z,6.40
2023-01-04T18:39:40.874Z,6.83
2023-01-04T18:44:05.343Z,5.67
2023-01-04T18:48:06.871Z,5.67
2023-01-04T18:52:11.192Z,6.60
2023-01-04T18:56:30.612Z,5.47
2023-01-04T19:00:39.254Z,5.13
2023-01-04T19:04:45.084Z,6.00
2023-01-04T19:08:58.083Z,5.60
2023-01-04T19:13:01.897Z,5.70
2023-01-04T19:17:05.234Z,5.43
2023-01-04T19:21:08.444Z,6.07
2023-01-04T19:25:12.922Z,5.60
2023-01-04T19:29:15.754Z,6.63
2023-01-04T19:33:18.919Z,6.40
2023-01-04T19:37:22.631Z,6.70
2023-01-04T19:41:33.721Z,6.37
2023-01-04T19:45:42.316Z,7.30
2023-01-04T19:49:45.264Z,6.87
2023-01-04T19:54:04.240Z,8.13
2023-01-04T19:58:08.593Z,7.00
2023-01-04T20:02:12.884Z,7.17
2023-01-04T20:06:17.711Z,7.20
2023-01-04T20:10:20.442Z,7.87
2023-01-04T20:14:25.001Z,7.13
2023-01-04T20:18:28.158Z,8.70
2023-01-04T20:22:33.314Z,8.63
2023-01-04T20:26:37.424Z,8.13
2023-01-04T20:30:42.170Z,8.60
2023-01-04T20:34:45.193Z,7.40
2023-01-04T20:38:49.204Z,8.13
2023-01-04T20:43:10.431Z,10.57
2023-01-04T20:47:14.916Z,8.10
2023-01-04T20:51:20.271Z,8.63
2023-01-04T20:55:23.287Z,8.73
2023-01-04T20:59:26.217Z,7.97
2023-01-04T21:03:30.739Z,8.53
2023-01-04T21:07:34.091Z,8.53
2023-01-04T21:11:37.141Z,8.20
2023-01-04T21:15:42.068Z,8.57
2023-01-04T21:19:46.232Z,8.47
2023-01-04T21:23:56.259Z,7.07
2023-01-04T21:28:02.278Z,8.17
2023-01-04T21:32:05.704Z,8.40
2023-01-04T21:36:16.095Z,9.20
2023-01-04T21:40:18.937Z,7.10
2023-01-04T21:44:22.276Z,7.20
2023-01-04T21:48:26.382Z,7.73
2023-01-04T21:52:30.823Z,8.33
2023-01-04T21:56:33.659Z,8.33
2023-01-04T22:00:36.934Z,7.37
2023-01-04T22:04:40.005Z,7.43
2023-01-04T22:08:46.206Z,7.57
2023-01-04T22:12:50.429Z,7.17
2023-01-04T22:16:53.225Z,8.17
2023-01-04T22:21:02.788Z,7.13
2023-01-04T22:25:08.697Z,7.67
2023-01-04T22:29:12.323Z,7.87
2023-01-04T22:33:15.337Z,7.33
2023-01-04T22:37:18.453Z,7.57
2023-01-04T22:41:24.822Z,7.47
2023-01-04T22:45:27.765Z,6.77
2023-01-04T22:49:31.120Z,6.93
2023-01-04T22:53:34.014Z,6.70
2023-01-04T22:57:38.372Z,6.90
2023-01-04T23:01:42.575Z,6.23
2023-01-04T23:05:45.460Z,6.37
2023-01-04T23:09:48.514Z,6.20
2023-01-04T23:13:53.966Z,6.80
2023-01-04T23:17:57.224Z,6.57
2023-01-04T23:22:00.509Z,6.03
2023-01-04T23:26:08.133Z,6.17
2023-01-04T23:30:14.721Z,7.33
2023-01-04T23:34:17.836Z,6.83
2023-01-04T23:38:20.788Z,6.70
2023-01-04T23:42:23.897Z,7.37
2023-01-04T23:46:28.201Z,6.80
2023-01-04T23:50:31.502Z,6.00
2023-01-04T23:54:34.876Z,6.90
2023-01-04T23:58:37.924Z,6.50
